Pays
Station

 

Conditions  météo  pour  Goose, Nfld.  -  Canada    Canada

  
-18 °C
    
 
 

METAR pour Goose, Nfld. :

CYYR 212211Z 36010KT 2SM -SN OVC016 M18/M22 A2974 RMK SN3SC5 SLP078

 

Voici le bulletin pour Goose, Nfld. - Canada.
 
Le bulletin a été fait il y a 20 minutes, à 22:11 UTC .
Le vent soufflait à la vitesse de 5.1 mètres par seconde de Nord (360°).
 
La température était de -18 °C, avec un point de rosée à -22 °C.
La pression atmosphérique était de 1007 hPa.
L'humidité relative était de 70.7%.
 
Le ciel était nuageux à partir d'une hauteur de 488 mètres
 
La visibilité globale était de 3219 mètres.
 
Actuellement léger/legère neige.

 
 
 

Pays :   A   B   C   D   E   F   G   H   I   J   K   L   M   N   O   P   Q   R   S   T   U   V   W   Y   Z

 

Partenaires :  Info Météo avec Met'info
Météo Marine avec MeteoMarine.net
Infos Site  |  Infos Légales  |  Crédits  |  Confidentialité
Contactez-nous  |  Ajouter aux favoris
© 2013-2019 METAR - Tous droits réservés